sensor_id;sensor_type;location;lat;lon;timestamp;P1;durP1;ratioP1;P2;durP2;ratioP2
21741;SDS011;11033;47.490;11.116;2024-03-17T00:00:19;2.45;;;2.00;;
21741;SDS011;11033;47.490;11.116;2024-03-17T00:02:45;3.83;;;1.70;;
21741;SDS011;11033;47.490;11.116;2024-03-17T00:05:11;3.25;;;1.70;;
21741;SDS011;11033;47.490;11.116;2024-03-17T00:07:37;2.28;;;1.58;;
21741;SDS011;11033;47.490;11.116;2024-03-17T00:10:02;2.33;;;1.40;;
21741;SDS011;11033;47.490;11.116;2024-03-17T00:12:27;1.20;;;1.10;;
21741;SDS011;11033;47.490;11.116;2024-03-17T00:14:53;2.50;;;1.08;;
21741;SDS011;11033;47.490;11.116;2024-03-17T00:17:18;1.15;;;1.02;;
21741;SDS011;11033;47.490;11.116;2024-03-17T00:19:45;1.13;;;1.00;;
21741;SDS011;11033;47.490;11.116;2024-03-17T00:22:11;0.80;;;0.80;;
21741;SDS011;11033;47.490;11.116;2024-03-17T00:24:38;1.77;;;1.10;;
21741;SDS011;11033;47.490;11.116;2024-03-17T00:27:04;0.85;;;0.80;;
21741;SDS011;11033;47.490;11.116;2024-03-17T00:29:29;0.90;;;0.73;;
21741;SDS011;11033;47.490;11.116;2024-03-17T00:31:54;1.40;;;0.70;;
21741;SDS011;11033;47.490;11.116;2024-03-17T00:34:20;2.05;;;0.95;;
21741;SDS011;11033;47.490;11.116;2024-03-17T00:36:46;0.75;;;0.75;;
21741;SDS011;11033;47.490;11.116;2024-03-17T00:39:11;0.95;;;0.80;;
21741;SDS011;11033;47.490;11.116;2024-03-17T00:41:37;1.70;;;0.82;;
21741;SDS011;11033;47.490;11.116;2024-03-17T00:44:02;1.38;;;0.90;;
21741;SDS011;11033;47.490;11.116;2024-03-17T00:46:28;1.33;;;1.23;;
21741;SDS011;11033;47.490;11.116;2024-03-17T00:48:53;1.10;;;1.00;;
21741;SDS011;11033;47.490;11.116;2024-03-17T00:51:19;1.38;;;1.27;;
21741;SDS011;11033;47.490;11.116;2024-03-17T00:53:44;1.48;;;1.10;;
21741;SDS011;11033;47.490;11.116;2024-03-17T00:56:09;1.48;;;1.10;;
21741;SDS011;11033;47.490;11.116;2024-03-17T00:58:35;0.90;;;0.90;;
21741;SDS011;11033;47.490;11.116;2024-03-17T01:01:00;1.00;;;1.00;;
21741;SDS011;11033;47.490;11.116;2024-03-17T01:03:25;4.38;;;1.10;;
21741;SDS011;11033;47.490;11.116;2024-03-17T01:05:52;2.47;;;0.95;;
21741;SDS011;11033;47.490;11.116;2024-03-17T01:08:18;1.50;;;0.70;;
21741;SDS011;11033;47.490;11.116;2024-03-17T01:10:44;1.10;;;0.80;;
21741;SDS011;11033;47.490;11.116;2024-03-17T01:13:11;1.63;;;0.70;;
21741;SDS011;11033;47.490;11.116;2024-03-17T01:15:36;0.90;;;0.90;;
21741;SDS011;11033;47.490;11.116;2024-03-17T01:18:02;1.15;;;0.90;;
21741;SDS011;11033;47.490;11.116;2024-03-17T01:20:29;1.77;;;1.20;;
21741;SDS011;11033;47.490;11.116;2024-03-17T01:22:55;0.98;;;0.98;;
21741;SDS011;11033;47.490;11.116;2024-03-17T01:25:20;1.63;;;0.90;;
21741;SDS011;11033;47.490;11.116;2024-03-17T01:27:45;0.70;;;0.70;;
21741;SDS011;11033;47.490;11.116;2024-03-17T01:30:11;1.10;;;0.70;;
21741;SDS011;11033;47.490;11.116;2024-03-17T01:32:37;0.93;;;0.77;;
21741;SDS011;11033;47.490;11.116;2024-03-17T01:35:02;2.25;;;0.77;;
21741;SDS011;11033;47.490;11.116;2024-03-17T01:37:27;1.67;;;0.60;;
21741;SDS011;11033;47.490;11.116;2024-03-17T01:39:56;0.50;;;0.50;;
21741;SDS011;11033;47.490;11.116;2024-03-17T01:42:22;0.50;;;0.50;;
21741;SDS011;11033;47.490;11.116;2024-03-17T01:44:47;0.65;;;0.65;;
21741;SDS011;11033;47.490;11.116;2024-03-17T01:47:12;1.35;;;0.57;;
21741;SDS011;11033;47.490;11.116;2024-03-17T01:49:38;0.50;;;0.50;;
21741;SDS011;11033;47.490;11.116;2024-03-17T01:52:03;0.85;;;0.60;;
21741;SDS011;11033;47.490;11.116;2024-03-17T01:54:30;0.85;;;0.70;;
21741;SDS011;11033;47.490;11.116;2024-03-17T01:56:56;0.70;;;0.70;;
21741;SDS011;11033;47.490;11.116;2024-03-17T01:59:21;1.60;;;0.90;;
21741;SDS011;11033;47.490;11.116;2024-03-17T02:01:47;0.75;;;0.70;;
21741;SDS011;11033;47.490;11.116;2024-03-17T02:04:12;1.52;;;0.80;;
21741;SDS011;11033;47.490;11.116;2024-03-17T02:06:37;0.63;;;0.63;;
21741;SDS011;11033;47.490;11.116;2024-03-17T02:09:04;1.30;;;0.73;;
21741;SDS011;11033;47.490;11.116;2024-03-17T02:11:30;1.25;;;0.80;;
21741;SDS011;11033;47.490;11.116;2024-03-17T02:13:56;0.70;;;0.70;;
21741;SDS011;11033;47.490;11.116;2024-03-17T02:16:23;0.90;;;0.90;;
21741;SDS011;11033;47.490;11.116;2024-03-17T02:18:49;1.30;;;0.80;;
21741;SDS011;11033;47.490;11.116;2024-03-17T02:21:19;2.88;;;0.90;;
21741;SDS011;11033;47.490;11.116;2024-03-17T02:23:45;0.88;;;0.88;;
21741;SDS011;11033;47.490;11.116;2024-03-17T02:26:11;0.70;;;0.70;;
21741;SDS011;11033;47.490;11.116;2024-03-17T02:28:43;1.00;;;0.80;;
21741;SDS011;11033;47.490;11.116;2024-03-17T02:31:10;1.00;;;0.98;;
21741;SDS011;11033;47.490;11.116;2024-03-17T02:33:36;1.63;;;0.80;;
21741;SDS011;11033;47.490;11.116;2024-03-17T02:36:02;0.65;;;0.65;;
21741;SDS011;11033;47.490;11.116;2024-03-17T02:38:35;1.67;;;0.60;;
21741;SDS011;11033;47.490;11.116;2024-03-17T02:41:19;1.08;;;0.50;;
21741;SDS011;11033;47.490;11.116;2024-03-17T02:43:45;2.15;;;0.73;;
21741;SDS011;11033;47.490;11.116;2024-03-17T02:46:14;1.75;;;0.70;;
21741;SDS011;11033;47.490;11.116;2024-03-17T02:48:42;0.50;;;0.50;;
21741;SDS011;11033;47.490;11.116;2024-03-17T02:51:10;1.42;;;0.60;;
21741;SDS011;11033;47.490;11.116;2024-03-17T02:53:36;1.48;;;0.63;;
21741;SDS011;11033;47.490;11.116;2024-03-17T02:56:01;1.95;;;0.75;;
21741;SDS011;11033;47.490;11.116;2024-03-17T02:58:26;0.70;;;0.63;;
21741;SDS011;11033;47.490;11.116;2024-03-17T03:00:52;0.60;;;0.60;;
21741;SDS011;11033;47.490;11.116;2024-03-17T03:03:17;1.33;;;0.50;;
21741;SDS011;11033;47.490;11.116;2024-03-17T03:05:42;1.17;;;0.60;;
21741;SDS011;11033;47.490;11.116;2024-03-17T03:08:07;0.85;;;0.65;;
21741;SDS011;11033;47.490;11.116;2024-03-17T03:10:33;0.60;;;0.60;;
21741;SDS011;11033;47.490;11.116;2024-03-17T03:13:00;0.50;;;0.50;;
21741;SDS011;11033;47.490;11.116;2024-03-17T03:15:26;0.57;;;0.57;;
21741;SDS011;11033;47.490;11.116;2024-03-17T03:17:51;0.65;;;0.60;;
21741;SDS011;11033;47.490;11.116;2024-03-17T03:20:16;0.75;;;0.50;;
21741;SDS011;11033;47.490;11.116;2024-03-17T03:22:42;0.60;;;0.60;;
21741;SDS011;11033;47.490;11.116;2024-03-17T03:25:08;0.88;;;0.50;;
21741;SDS011;11033;47.490;11.116;2024-03-17T03:27:33;0.70;;;0.60;;
21741;SDS011;11033;47.490;11.116;2024-03-17T03:29:58;0.98;;;0.70;;
21741;SDS011;11033;47.490;11.116;2024-03-17T03:32:24;0.88;;;0.88;;
21741;SDS011;11033;47.490;11.116;2024-03-17T03:34:50;1.75;;;0.65;;
21741;SDS011;11033;47.490;11.116;2024-03-17T03:37:15;0.60;;;0.60;;
21741;SDS011;11033;47.490;11.116;2024-03-17T03:39:41;1.13;;;0.80;;
21741;SDS011;11033;47.490;11.116;2024-03-17T03:42:06;0.90;;;0.68;;
21741;SDS011;11033;47.490;11.116;2024-03-17T03:44:32;0.93;;;0.50;;
21741;SDS011;11033;47.490;11.116;2024-03-17T03:46:58;1.40;;;0.73;;
21741;SDS011;11033;47.490;11.116;2024-03-17T03:49:25;0.93;;;0.70;;
21741;SDS011;11033;47.490;11.116;2024-03-17T03:51:51;0.60;;;0.60;;
21741;SDS011;11033;47.490;11.116;2024-03-17T03:54:16;0.77;;;0.65;;
21741;SDS011;11033;47.490;11.116;2024-03-17T03:56:42;0.50;;;0.50;;
21741;SDS011;11033;47.490;11.116;2024-03-17T03:59:07;2.00;;;0.70;;
21741;SDS011;11033;47.490;11.116;2024-03-17T04:01:32;0.95;;;0.75;;
21741;SDS011;11033;47.490;11.116;2024-03-17T04:03:58;0.98;;;0.57;;
21741;SDS011;11033;47.490;11.116;2024-03-17T04:06:23;1.88;;;0.90;;
21741;SDS011;11033;47.490;11.116;2024-03-17T04:08:48;0.60;;;0.57;;
21741;SDS011;11033;47.490;11.116;2024-03-17T04:11:13;1.02;;;0.93;;
21741;SDS011;11033;47.490;11.116;2024-03-17T04:13:39;0.85;;;0.80;;
21741;SDS011;11033;47.490;11.116;2024-03-17T04:16:04;0.68;;;0.68;;
21741;SDS011;11033;47.490;11.116;2024-03-17T04:18:31;0.77;;;0.77;;
21741;SDS011;11033;47.490;11.116;2024-03-17T04:21:01;0.75;;;0.50;;
21741;SDS011;11033;47.490;11.116;2024-03-17T04:23:27;0.60;;;0.60;;
21741;SDS011;11033;47.490;11.116;2024-03-17T04:25:53;1.13;;;0.70;;
21741;SDS011;11033;47.490;11.116;2024-03-17T04:28:18;0.80;;;0.77;;
21741;SDS011;11033;47.490;11.116;2024-03-17T04:30:44;1.85;;;0.60;;
21741;SDS011;11033;47.490;11.116;2024-03-17T04:33:10;1.58;;;0.70;;
21741;SDS011;11033;47.490;11.116;2024-03-17T04:35:36;0.60;;;0.60;;
21741;SDS011;11033;47.490;11.116;2024-03-17T04:38:04;0.60;;;0.60;;
21741;SDS011;11033;47.490;11.116;2024-03-17T04:40:34;1.05;;;0.60;;
21741;SDS011;11033;47.490;11.116;2024-03-17T04:43:00;0.80;;;0.70;;
21741;SDS011;11033;47.490;11.116;2024-03-17T04:45:26;1.27;;;1.17;;
21741;SDS011;11033;47.490;11.116;2024-03-17T04:47:51;0.80;;;0.80;;
21741;SDS011;11033;47.490;11.116;2024-03-17T04:50:17;1.10;;;1.00;;
21741;SDS011;11033;47.490;11.116;2024-03-17T04:52:42;1.33;;;1.02;;
21741;SDS011;11033;47.490;11.116;2024-03-17T04:55:07;1.00;;;1.00;;
21741;SDS011;11033;47.490;11.116;2024-03-17T04:57:33;1.42;;;1.13;;
21741;SDS011;11033;47.490;11.116;2024-03-17T04:59:58;1.13;;;1.02;;
21741;SDS011;11033;47.490;11.116;2024-03-17T05:02:24;1.10;;;0.98;;
21741;SDS011;11033;47.490;11.116;2024-03-17T05:04:50;2.15;;;1.13;;
21741;SDS011;11033;47.490;11.116;2024-03-17T05:07:15;1.20;;;1.20;;
21741;SDS011;11033;47.490;11.116;2024-03-17T05:09:40;1.33;;;1.20;;
21741;SDS011;11033;47.490;11.116;2024-03-17T05:12:06;0.80;;;0.80;;
21741;SDS011;11033;47.490;11.116;2024-03-17T05:14:31;1.45;;;0.70;;
21741;SDS011;11033;47.490;11.116;2024-03-17T05:16:57;0.90;;;0.85;;
21741;SDS011;11033;47.490;11.116;2024-03-17T05:19:22;2.05;;;0.90;;
21741;SDS011;11033;47.490;11.116;2024-03-17T05:21:48;1.77;;;1.00;;
21741;SDS011;11033;47.490;11.116;2024-03-17T05:24:13;1.70;;;0.90;;
21741;SDS011;11033;47.490;11.116;2024-03-17T05:26:39;1.17;;;1.00;;
21741;SDS011;11033;47.490;11.116;2024-03-17T05:29:04;0.90;;;0.90;;
21741;SDS011;11033;47.490;11.116;2024-03-17T05:31:30;0.80;;;0.80;;
21741;SDS011;11033;47.490;11.116;2024-03-17T05:33:56;1.92;;;1.00;;
21741;SDS011;11033;47.490;11.116;2024-03-17T05:36:22;3.30;;;0.98;;
21741;SDS011;11033;47.490;11.116;2024-03-17T05:38:47;1.10;;;1.10;;
21741;SDS011;11033;47.490;11.116;2024-03-17T05:41:12;2.00;;;1.30;;
21741;SDS011;11033;47.490;11.116;2024-03-17T05:43:38;1.75;;;1.35;;
21741;SDS011;11033;47.490;11.116;2024-03-17T05:46:05;1.15;;;1.15;;
21741;SDS011;11033;47.490;11.116;2024-03-17T05:48:35;1.67;;;1.50;;
21741;SDS011;11033;47.490;11.116;2024-03-17T05:51:04;1.73;;;1.63;;
21741;SDS011;11033;47.490;11.116;2024-03-17T05:53:30;1.67;;;1.58;;
21741;SDS011;11033;47.490;11.116;2024-03-17T05:55:59;1.70;;;1.60;;
21741;SDS011;11033;47.490;11.116;2024-03-17T05:58:25;1.95;;;1.60;;
21741;SDS011;11033;47.490;11.116;2024-03-17T06:00:50;1.83;;;1.73;;
21741;SDS011;11033;47.490;11.116;2024-03-17T06:03:15;2.13;;;1.85;;
21741;SDS011;11033;47.490;11.116;2024-03-17T06:05:42;2.15;;;1.95;;
21741;SDS011;11033;47.490;11.116;2024-03-17T06:08:08;2.00;;;1.80;;
21741;SDS011;11033;47.490;11.116;2024-03-17T06:10:34;1.90;;;1.80;;
21741;SDS011;11033;47.490;11.116;2024-03-17T06:13:01;1.85;;;1.73;;
21741;SDS011;11033;47.490;11.116;2024-03-17T06:15:27;2.97;;;1.80;;
21741;SDS011;11033;47.490;11.116;2024-03-17T06:17:52;2.60;;;1.77;;
21741;SDS011;11033;47.490;11.116;2024-03-17T06:20:18;1.83;;;1.73;;
21741;SDS011;11033;47.490;11.116;2024-03-17T06:22:44;2.28;;;1.80;;
21741;SDS011;11033;47.490;11.116;2024-03-17T06:25:10;1.70;;;1.60;;
21741;SDS011;11033;47.490;11.116;2024-03-17T06:27:36;1.80;;;1.63;;
21741;SDS011;11033;47.490;11.116;2024-03-17T06:30:02;1.40;;;1.30;;
21741;SDS011;11033;47.490;11.116;2024-03-17T06:32:29;1.33;;;1.23;;
21741;SDS011;11033;47.490;11.116;2024-03-17T06:35:03;1.20;;;1.10;;
21741;SDS011;11033;47.490;11.116;2024-03-17T06:37:29;0.98;;;0.88;;
21741;SDS011;11033;47.490;11.116;2024-03-17T06:39:54;0.93;;;0.90;;
21741;SDS011;11033;47.490;11.116;2024-03-17T06:42:19;3.70;;;0.80;;
21741;SDS011;11033;47.490;11.116;2024-03-17T06:44:45;2.38;;;0.88;;
21741;SDS011;11033;47.490;11.116;2024-03-17T06:47:10;5.25;;;3.97;;
21741;SDS011;11033;47.490;11.116;2024-03-17T06:49:36;3.00;;;2.70;;
21741;SDS011;11033;47.490;11.116;2024-03-17T06:52:01;2.33;;;1.90;;
21741;SDS011;11033;47.490;11.116;2024-03-17T06:54:26;1.55;;;1.45;;
21741;SDS011;11033;47.490;11.116;2024-03-17T06:56:51;1.48;;;1.25;;
21741;SDS011;11033;47.490;11.116;2024-03-17T06:59:17;1.10;;;1.00;;
21741;SDS011;11033;47.490;11.116;2024-03-17T07:01:43;1.20;;;0.90;;
21741;SDS011;11033;47.490;11.116;2024-03-17T07:04:09;1.25;;;1.10;;
21741;SDS011;11033;47.490;11.116;2024-03-17T07:06:35;2.00;;;1.10;;
21741;SDS011;11033;47.490;11.116;2024-03-17T07:09:01;1.73;;;1.10;;
21741;SDS011;11033;47.490;11.116;2024-03-17T07:11:26;2.78;;;1.00;;
21741;SDS011;11033;47.490;11.116;2024-03-17T07:13:51;0.88;;;0.88;;
21741;SDS011;11033;47.490;11.116;2024-03-17T07:16:17;1.10;;;1.00;;
21741;SDS011;11033;47.490;11.116;2024-03-17T07:18:43;0.70;;;0.70;;
21741;SDS011;11033;47.490;11.116;2024-03-17T07:21:08;0.98;;;0.80;;
21741;SDS011;11033;47.490;11.116;2024-03-17T07:23:35;1.58;;;1.10;;
21741;SDS011;11033;47.490;11.116;2024-03-17T07:26:01;2.13;;;1.25;;
21741;SDS011;11033;47.490;11.116;2024-03-17T07:28:29;1.25;;;1.00;;
21741;SDS011;11033;47.490;11.116;2024-03-17T07:30:56;0.90;;;0.90;;
21741;SDS011;11033;47.490;11.116;2024-03-17T07:33:23;1.70;;;1.17;;
21741;SDS011;11033;47.490;11.116;2024-03-17T07:35:50;1.00;;;0.98;;
21741;SDS011;11033;47.490;11.116;2024-03-17T07:38:20;0.75;;;0.75;;
21741;SDS011;11033;47.490;11.116;2024-03-17T07:40:55;0.90;;;0.90;;
21741;SDS011;11033;47.490;11.116;2024-03-17T07:43:24;0.80;;;0.80;;
21741;SDS011;11033;47.490;11.116;2024-03-17T07:46:23;1.35;;;0.98;;
21741;SDS011;11033;47.490;11.116;2024-03-17T07:48:42;1.73;;;1.10;;
21741;SDS011;11033;47.490;11.116;2024-03-17T07:51:13;1.00;;;1.00;;
21741;SDS011;11033;47.490;11.116;2024-03-17T07:53:40;0.88;;;0.80;;
21741;SDS011;11033;47.490;11.116;2024-03-17T07:56:09;1.55;;;1.00;;
21741;SDS011;11033;47.490;11.116;2024-03-17T07:58:37;1.00;;;0.90;;
21741;SDS011;11033;47.490;11.116;2024-03-17T08:01:06;0.90;;;0.90;;
21741;SDS011;11033;47.490;11.116;2024-03-17T08:03:40;1.13;;;0.88;;
21741;SDS011;11033;47.490;11.116;2024-03-17T08:06:09;2.38;;;1.00;;
21741;SDS011;11033;47.490;11.116;2024-03-17T08:08:35;1.10;;;1.00;;
21741;SDS011;11033;47.490;11.116;2024-03-17T08:11:01;1.42;;;0.80;;
21741;SDS011;11033;47.490;11.116;2024-03-17T08:13:30;0.82;;;0.70;;
21741;SDS011;11033;47.490;11.116;2024-03-17T08:16:03;0.93;;;0.93;;
21741;SDS011;11033;47.490;11.116;2024-03-17T08:18:31;0.82;;;0.77;;
21741;SDS011;11033;47.490;11.116;2024-03-17T08:20:56;0.77;;;0.77;;
21741;SDS011;11033;47.490;11.116;2024-03-17T08:23:22;0.98;;;0.93;;
21741;SDS011;11033;47.490;11.116;2024-03-17T08:25:51;2.60;;;0.80;;
21741;SDS011;11033;47.490;11.116;2024-03-17T08:28:18;0.95;;;0.90;;
21741;SDS011;11033;47.490;11.116;2024-03-17T08:30:50;0.80;;;0.80;;
21741;SDS011;11033;47.490;11.116;2024-03-17T08:33:16;1.98;;;1.05;;
21741;SDS011;11033;47.490;11.116;2024-03-17T08:35:41;1.60;;;0.77;;
21741;SDS011;11033;47.490;11.116;2024-03-17T08:38:06;0.80;;;0.80;;
21741;SDS011;11033;47.490;11.116;2024-03-17T08:40:32;1.58;;;0.65;;
21741;SDS011;11033;47.490;11.116;2024-03-17T08:42:57;0.82;;;0.60;;
21741;SDS011;11033;47.490;11.116;2024-03-17T08:45:22;1.27;;;0.80;;
21741;SDS011;11033;47.490;11.116;2024-03-17T08:47:50;0.60;;;0.60;;
21741;SDS011;11033;47.490;11.116;2024-03-17T08:50:17;0.87;;;0.40;;
21741;SDS011;11033;47.490;11.116;2024-03-17T08:52:43;0.85;;;0.60;;
21741;SDS011;11033;47.490;11.116;2024-03-17T08:55:08;1.17;;;0.70;;
21741;SDS011;11033;47.490;11.116;2024-03-17T09:00:04;0.73;;;0.63;;
21741;SDS011;11033;47.490;11.116;2024-03-17T09:02:30;1.17;;;0.80;;
21741;SDS011;11033;47.490;11.116;2024-03-17T09:04:55;1.75;;;0.63;;
21741;SDS011;11033;47.490;11.116;2024-03-17T09:07:20;1.27;;;0.60;;
21741;SDS011;11033;47.490;11.116;2024-03-17T09:09:46;1.73;;;0.80;;
21741;SDS011;11033;47.490;11.116;2024-03-17T09:12:13;1.40;;;0.70;;
21741;SDS011;11033;47.490;11.116;2024-03-17T09:14:38;1.08;;;0.70;;
21741;SDS011;11033;47.490;11.116;2024-03-17T09:17:05;1.10;;;0.70;;
21741;SDS011;11033;47.490;11.116;2024-03-17T09:19:31;1.35;;;0.95;;
21741;SDS011;11033;47.490;11.116;2024-03-17T09:21:58;0.55;;;0.55;;
21741;SDS011;11033;47.490;11.116;2024-03-17T09:24:23;0.82;;;0.60;;
21741;SDS011;11033;47.490;11.116;2024-03-17T09:26:49;0.75;;;0.65;;
21741;SDS011;11033;47.490;11.116;2024-03-17T09:29:15;0.73;;;0.68;;
21741;SDS011;11033;47.490;11.116;2024-03-17T09:31:40;0.60;;;0.60;;
21741;SDS011;11033;47.490;11.116;2024-03-17T09:34:06;0.70;;;0.70;;
21741;SDS011;11033;47.490;11.116;2024-03-17T09:36:32;1.13;;;0.75;;
21741;SDS011;11033;47.490;11.116;2024-03-17T09:38:57;0.80;;;0.80;;
21741;SDS011;11033;47.490;11.116;2024-03-17T09:41:24;0.85;;;0.85;;
21741;SDS011;11033;47.490;11.116;2024-03-17T09:43:53;0.70;;;0.70;;
21741;SDS011;11033;47.490;11.116;2024-03-17T09:46:18;0.88;;;0.70;;
21741;SDS011;11033;47.490;11.116;2024-03-17T09:48:44;1.17;;;0.98;;
21741;SDS011;11033;47.490;11.116;2024-03-17T09:51:14;2.75;;;0.90;;
21741;SDS011;11033;47.490;11.116;2024-03-17T09:53:43;2.83;;;1.00;;
21741;SDS011;11033;47.490;11.116;2024-03-17T09:58:41;0.88;;;0.80;;
21741;SDS011;11033;47.490;11.116;2024-03-17T10:01:07;0.98;;;0.80;;
21741;SDS011;11033;47.490;11.116;2024-03-17T10:03:39;0.70;;;0.70;;
21741;SDS011;11033;47.490;11.116;2024-03-17T10:06:15;0.60;;;0.60;;
21741;SDS011;11033;47.490;11.116;2024-03-17T10:11:11;1.47;;;0.90;;
21741;SDS011;11033;47.490;11.116;2024-03-17T10:13:37;0.95;;;0.73;;
21741;SDS011;11033;47.490;11.116;2024-03-17T10:16:02;1.25;;;0.77;;
21741;SDS011;11033;47.490;11.116;2024-03-17T10:18:28;1.90;;;0.70;;
21741;SDS011;11033;47.490;11.116;2024-03-17T10:20:53;1.10;;;0.70;;
21741;SDS011;11033;47.490;11.116;2024-03-17T10:23:22;0.60;;;0.52;;
21741;SDS011;11033;47.490;11.116;2024-03-17T10:25:48;0.70;;;0.60;;
21741;SDS011;11033;47.490;11.116;2024-03-17T10:28:15;0.47;;;0.47;;
21741;SDS011;11033;47.490;11.116;2024-03-17T10:30:41;0.80;;;0.50;;
21741;SDS011;11033;47.490;11.116;2024-03-17T10:33:08;1.00;;;0.70;;
21741;SDS011;11033;47.490;11.116;2024-03-17T10:35:47;1.20;;;1.00;;
21741;SDS011;11033;47.490;11.116;2024-03-17T10:38:13;0.93;;;0.70;;
21741;SDS011;11033;47.490;11.116;2024-03-17T10:40:39;1.55;;;0.63;;
21741;SDS011;11033;47.490;11.116;2024-03-17T10:43:04;1.20;;;0.50;;
21741;SDS011;11033;47.490;11.116;2024-03-17T10:45:31;0.75;;;0.50;;
21741;SDS011;11033;47.490;11.116;2024-03-17T10:48:02;0.82;;;0.55;;
21741;SDS011;11033;47.490;11.116;2024-03-17T10:50:32;2.15;;;0.82;;
21741;SDS011;11033;47.490;11.116;2024-03-17T10:53:01;0.40;;;0.40;;
21741;SDS011;11033;47.490;11.116;2024-03-17T10:55:28;1.95;;;0.60;;
21741;SDS011;11033;47.490;11.116;2024-03-17T10:57:57;1.48;;;0.73;;
21741;SDS011;11033;47.490;11.116;2024-03-17T11:00:29;1.00;;;0.75;;
21741;SDS011;11033;47.490;11.116;2024-03-17T11:02:55;0.63;;;0.40;;
21741;SDS011;11033;47.490;11.116;2024-03-17T11:05:21;1.13;;;0.77;;
21741;SDS011;11033;47.490;11.116;2024-03-17T11:07:59;1.63;;;0.60;;
21741;SDS011;11033;47.490;11.116;2024-03-17T11:10:34;0.70;;;0.52;;
21741;SDS011;11033;47.490;11.116;2024-03-17T11:13:01;1.05;;;0.60;;
21741;SDS011;11033;47.490;11.116;2024-03-17T11:20:33;1.33;;;0.63;;
21741;SDS011;11033;47.490;11.116;2024-03-17T11:22:59;0.50;;;0.50;;
21741;SDS011;11033;47.490;11.116;2024-03-17T11:27:51;0.83;;;0.50;;
21741;SDS011;11033;47.490;11.116;2024-03-17T11:38:57;0.98;;;0.60;;
21741;SDS011;11033;47.490;11.116;2024-03-17T11:41:42;0.52;;;0.50;;
21741;SDS011;11033;47.490;11.116;2024-03-17T11:46:54;0.95;;;0.90;;
21741;SDS011;11033;47.490;11.116;2024-03-17T11:49:34;1.27;;;0.82;;
21741;SDS011;11033;47.490;11.116;2024-03-17T11:52:13;0.93;;;0.90;;
21741;SDS011;11033;47.490;11.116;2024-03-17T11:54:41;0.60;;;0.60;;
21741;SDS011;11033;47.490;11.116;2024-03-17T11:57:12;1.27;;;0.60;;
21741;SDS011;11033;47.490;11.116;2024-03-17T11:59:39;0.88;;;0.55;;
21741;SDS011;11033;47.490;11.116;2024-03-17T12:02:21;0.90;;;0.70;;
21741;SDS011;11033;47.490;11.116;2024-03-17T12:04:49;1.10;;;1.00;;
21741;SDS011;11033;47.490;11.116;2024-03-17T12:07:17;1.15;;;0.80;;
21741;SDS011;11033;47.490;11.116;2024-03-17T12:09:43;0.75;;;0.70;;
21741;SDS011;11033;47.490;11.116;2024-03-17T12:14:48;2.58;;;1.02;;
21741;SDS011;11033;47.490;11.116;2024-03-17T12:17:15;1.92;;;0.90;;
21741;SDS011;11033;47.490;11.116;2024-03-17T12:19:45;3.00;;;0.90;;
21741;SDS011;11033;47.490;11.116;2024-03-17T12:22:17;0.95;;;0.70;;
21741;SDS011;11033;47.490;11.116;2024-03-17T12:24:46;1.33;;;0.70;;
21741;SDS011;11033;47.490;11.116;2024-03-17T12:27:16;0.90;;;0.60;;
21741;SDS011;11033;47.490;11.116;2024-03-17T12:29:49;0.73;;;0.70;;
21741;SDS011;11033;47.490;11.116;2024-03-17T12:32:21;1.73;;;0.70;;
21741;SDS011;11033;47.490;11.116;2024-03-17T12:34:57;1.13;;;0.77;;
21741;SDS011;11033;47.490;11.116;2024-03-17T12:37:24;1.58;;;0.90;;
21741;SDS011;11033;47.490;11.116;2024-03-17T12:39:56;1.50;;;0.90;;
21741;SDS011;11033;47.490;11.116;2024-03-17T12:42:24;1.33;;;0.90;;
21741;SDS011;11033;47.490;11.116;2024-03-17T12:44:54;2.17;;;0.70;;
21741;SDS011;11033;47.490;11.116;2024-03-17T12:47:30;1.40;;;0.90;;
21741;SDS011;11033;47.490;11.116;2024-03-17T12:50:00;1.10;;;0.90;;
21741;SDS011;11033;47.490;11.116;2024-03-17T12:52:30;0.90;;;0.70;;
21741;SDS011;11033;47.490;11.116;2024-03-17T12:55:00;2.55;;;1.00;;
21741;SDS011;11033;47.490;11.116;2024-03-17T12:58:09;1.45;;;1.02;;
21741;SDS011;11033;47.490;11.116;2024-03-17T13:03:31;1.25;;;0.82;;
21741;SDS011;11033;47.490;11.116;2024-03-17T13:08:24;2.25;;;1.02;;
21741;SDS011;11033;47.490;11.116;2024-03-17T13:10:50;1.15;;;0.93;;
21741;SDS011;11033;47.490;11.116;2024-03-17T13:13:16;1.65;;;0.82;;
21741;SDS011;11033;47.490;11.116;2024-03-17T13:15:42;2.85;;;1.00;;
21741;SDS011;11033;47.490;11.116;2024-03-17T13:18:08;2.10;;;1.02;;
21741;SDS011;11033;47.490;11.116;2024-03-17T13:20:34;2.13;;;1.10;;
21741;SDS011;11033;47.490;11.116;2024-03-17T13:22:59;2.08;;;1.10;;
21741;SDS011;11033;47.490;11.116;2024-03-17T13:25:26;2.55;;;1.30;;
21741;SDS011;11033;47.490;11.116;2024-03-17T13:27:58;3.47;;;1.30;;
21741;SDS011;11033;47.490;11.116;2024-03-17T13:30:23;3.03;;;1.42;;
21741;SDS011;11033;47.490;11.116;2024-03-17T13:32:51;1.10;;;0.95;;
21741;SDS011;11033;47.490;11.116;2024-03-17T13:35:26;2.10;;;1.02;;
21741;SDS011;11033;47.490;11.116;2024-03-17T13:37:53;2.00;;;1.00;;
21741;SDS011;11033;47.490;11.116;2024-03-17T13:40:19;3.72;;;1.17;;
21741;SDS011;11033;47.490;11.116;2024-03-17T13:42:46;1.52;;;0.88;;
21741;SDS011;11033;47.490;11.116;2024-03-17T13:45:13;1.75;;;0.90;;
21741;SDS011;11033;47.490;11.116;2024-03-17T13:47:40;2.40;;;0.90;;
21741;SDS011;11033;47.490;11.116;2024-03-17T13:50:06;1.38;;;1.08;;
21741;SDS011;11033;47.490;11.116;2024-03-17T13:52:39;2.10;;;0.88;;
21741;SDS011;11033;47.490;11.116;2024-03-17T13:55:05;2.75;;;1.10;;
21741;SDS011;11033;47.490;11.116;2024-03-17T13:57:32;1.13;;;0.90;;
21741;SDS011;11033;47.490;11.116;2024-03-17T13:59:58;2.70;;;0.80;;
21741;SDS011;11033;47.490;11.116;2024-03-17T14:02:23;1.92;;;0.90;;
21741;SDS011;11033;47.490;11.116;2024-03-17T14:04:48;2.72;;;1.00;;
21741;SDS011;11033;47.490;11.116;2024-03-17T14:07:14;2.40;;;0.80;;
21741;SDS011;11033;47.490;11.116;2024-03-17T14:09:40;2.17;;;1.05;;
21741;SDS011;11033;47.490;11.116;2024-03-17T14:12:06;2.10;;;1.02;;
21741;SDS011;11033;47.490;11.116;2024-03-17T14:14:32;1.70;;;1.17;;
21741;SDS011;11033;47.490;11.116;2024-03-17T14:16:58;1.67;;;1.23;;
21741;SDS011;11033;47.490;11.116;2024-03-17T14:19:23;2.35;;;1.20;;
21741;SDS011;11033;47.490;11.116;2024-03-17T14:21:48;3.20;;;1.08;;
21741;SDS011;11033;47.490;11.116;2024-03-17T14:24:14;1.33;;;0.93;;
21741;SDS011;11033;47.490;11.116;2024-03-17T14:26:39;2.35;;;1.05;;
21741;SDS011;11033;47.490;11.116;2024-03-17T14:29:04;2.55;;;1.05;;
21741;SDS011;11033;47.490;11.116;2024-03-17T14:31:33;2.42;;;1.10;;
21741;SDS011;11033;47.490;11.116;2024-03-17T14:34:02;3.35;;;1.30;;
21741;SDS011;11033;47.490;11.116;2024-03-17T14:36:31;2.25;;;1.13;;
21741;SDS011;11033;47.490;11.116;2024-03-17T14:38:58;3.13;;;1.23;;
21741;SDS011;11033;47.490;11.116;2024-03-17T14:41:24;1.77;;;1.48;;
21741;SDS011;11033;47.490;11.116;2024-03-17T14:43:49;2.13;;;1.40;;
21741;SDS011;11033;47.490;11.116;2024-03-17T14:46:15;3.00;;;1.60;;
21741;SDS011;11033;47.490;11.116;2024-03-17T14:48:42;3.97;;;2.00;;
21741;SDS011;11033;47.490;11.116;2024-03-17T14:51:08;2.35;;;1.90;;
21741;SDS011;11033;47.490;11.116;2024-03-17T14:53:34;3.17;;;1.90;;
21741;SDS011;11033;47.490;11.116;2024-03-17T14:56:01;4.00;;;1.80;;
21741;SDS011;11033;47.490;11.116;2024-03-17T14:58:26;1.73;;;1.60;;
21741;SDS011;11033;47.490;11.116;2024-03-17T15:00:52;2.15;;;1.30;;
21741;SDS011;11033;47.490;11.116;2024-03-17T15:03:17;2.42;;;1.30;;
21741;SDS011;11033;47.490;11.116;2024-03-17T15:05:43;1.75;;;1.30;;